Capt. Ted — WDD6210 — position and weather

sailwx.info

Track history (hours):
 
Tides and Currents Weather Stations Pressure Air Temp Water Temp Dewpoint Dewpoint Depression Visibility Wind Speed Wind Dir Waves Ship Positions

Capt. Ted

More information available from US FCC via Universal Licensing System and Coast Guard Vessel Documentation Center.

Last reported at 2014-Sep-15 09:06 UTC. Time now 2014-Sep-16 11:32 UTC.
Position N 38°37' W 077°13'.

Length 32 m; draft 2.8 m.

Type: Tug. MMSI: 367169710.

Date/timePositionNaut miles runAvg speedWind from/ knotsBaromVisibWave heightAir tempDewpointWater temp
2014-Sep-15 09:06N 38°37' W 077°13'1 2.3
2014-Sep-15 08:30N 38°35' W 077°13'2 0.8
2014-Sep-15 06:26N 38°37' W 077°13'3 3.0
2014-Sep-15 05:33N 38°34' W 077°13'47 1.0
2014-Sep-13 05:31N 38°60' W 076°23'13 6.6
2014-Sep-13 03:33N 39°12' W 076°29'6 6.2
2014-Sep-13 02:33N 39°15' W 076°35'0 0.5
2014-Sep-13 01:33N 39°15' W 076°36'0 0.2
2014-Sep-13 00:33N 39°15' W 076°36'0 0.0
2014-Sep-12 23:33N 39°15' W 076°36'0 0.0
2014-Sep-12 22:33N 39°15' W 076°36'1 1.3
2014-Sep-12 21:33N 39°15' W 076°34'6 6.2
2014-Sep-12 20:33N 39°11' W 076°28'2 1.7
2014-Sep-12 19:33N 39°11' W 076°26'0 0.0
2014-Sep-11 21:32N 39°11' W 076°25'6 6.0
2014-Sep-11 20:33N 39°14' W 076°32'3 3.0
2014-Sep-11 19:33N 39°15' W 076°36'1 0.6
2014-Sep-11 18:33N 39°16' W 076°35'8 7.6
2014-Sep-11 17:33N 39°11' W 076°27'7 6.8
2014-Sep-11 16:32N 39°05' W 076°24'6 0.5
2014-Sep-11 02:33N 39°11' W 076°27'7 6.8
2014-Sep-11 01:33N 39°15' W 076°34'2 2.2
2014-Sep-11 00:33N 39°15' W 076°36'1 1.2
2014-Sep-10 23:33N 39°16' W 076°35'5 4.9
2014-Sep-10 22:33N 39°12' W 076°31'4 4.5
2014-Sep-10 21:33N 39°11' W 076°25'1 0.0
2014-Sep-10 04:22N 39°11' W 076°26'5 5.5
2014-Sep-10 03:33N 39°12' W 076°31'4 4.4
2014-Sep-10 02:33N 39°15' W 076°35'1 1.0
2014-Sep-10 01:33N 39°15' W 076°36'2 1.8
2014-Sep-10 00:33N 39°15' W 076°34'7 6.6
2014-Sep-09 23:33N 39°11' W 076°27'3 0.1
2014-Sep-09 00:23N 39°12' W 076°24'6 6.8
2014-Sep-08 23:33N 39°12' W 076°31'4 4.5
2014-Sep-08 22:33N 39°15' W 076°35'7 7.0
2014-Sep-08 21:33N 39°11' W 076°28'9 0.4
2014-Sep-08 00:19N 39°05' W 076°21'7 8.0
2014-Sep-07 23:24N 38°58' W 076°24'1 0.0
2014-Sep-06 21:33N 38°58' W 076°23'8 6.2
2014-Sep-06 20:20N 39°06' W 076°21'7 0.3
2014-Sep-05 21:29N 39°11' W 076°26'7 7.4
2014-Sep-05 20:34N 39°15' W 076°33'2 2.2
2014-Sep-05 19:33N 39°15' W 076°36'4 4.3
2014-Sep-05 18:33N 39°13' W 076°31'6 5.6
2014-Sep-05 17:33N 39°12' W 076°24'17 2.3
2014-Sep-05 10:11N 39°23' W 076°07'5 8.0
2014-Sep-05 09:33N 39°20' W 076°12'  
Track history (hours):
 
Tides and Currents Weather Stations Pressure Air Temp Water Temp Dewpoint Dewpoint Depression Visibility Wind Speed Wind Dir Waves Ship Positions

Capt. Ted

More information available from US FCC via Universal Licensing System and Coast Guard Vessel Documentation Center.

Last reported at 2014-Sep-15 09:06 UTC. Time now 2014-Sep-16 11:32 UTC.
Position N 38°37' W 077°13'.

Length 32 m; draft 2.8 m.

Type: Tug. MMSI: 367169710.

Date/timePositionNaut miles runAvg speedWind from/ knotsBaromVisibWave heightAir tempDewpointWater temp
2014-Sep-15 09:06N 38°37' W 077°13'1 2.3
2014-Sep-15 08:30N 38°35' W 077°13'2 0.8
2014-Sep-15 06:26N 38°37' W 077°13'3 3.0
2014-Sep-15 05:33N 38°34' W 077°13'47 1.0
2014-Sep-13 05:31N 38°60' W 076°23'13 6.6
2014-Sep-13 03:33N 39°12' W 076°29'6 6.2
2014-Sep-13 02:33N 39°15' W 076°35'0 0.5
2014-Sep-13 01:33N 39°15' W 076°36'0 0.2
2014-Sep-13 00:33N 39°15' W 076°36'0 0.0
2014-Sep-12 23:33N 39°15' W 076°36'0 0.0
2014-Sep-12 22:33N 39°15' W 076°36'1 1.3
2014-Sep-12 21:33N 39°15' W 076°34'6 6.2
2014-Sep-12 20:33N 39°11' W 076°28'2 1.7
2014-Sep-12 19:33N 39°11' W 076°26'0 0.0
2014-Sep-11 21:32N 39°11' W 076°25'6 6.0
2014-Sep-11 20:33N 39°14' W 076°32'3 3.0
2014-Sep-11 19:33N 39°15' W 076°36'1 0.6
2014-Sep-11 18:33N 39°16' W 076°35'8 7.6
2014-Sep-11 17:33N 39°11' W 076°27'7 6.8
2014-Sep-11 16:32N 39°05' W 076°24'6 0.5
2014-Sep-11 02:33N 39°11' W 076°27'7 6.8
2014-Sep-11 01:33N 39°15' W 076°34'2 2.2
2014-Sep-11 00:33N 39°15' W 076°36'1 1.2
2014-Sep-10 23:33N 39°16' W 076°35'5 4.9
2014-Sep-10 22:33N 39°12' W 076°31'4 4.5
2014-Sep-10 21:33N 39°11' W 076°25'1 0.0
2014-Sep-10 04:22N 39°11' W 076°26'5 5.5
2014-Sep-10 03:33N 39°12' W 076°31'4 4.4
2014-Sep-10 02:33N 39°15' W 076°35'1 1.0
2014-Sep-10 01:33N 39°15' W 076°36'2 1.8
2014-Sep-10 00:33N 39°15' W 076°34'7 6.6
2014-Sep-09 23:33N 39°11' W 076°27'3 0.1
2014-Sep-09 00:23N 39°12' W 076°24'6 6.8
2014-Sep-08 23:33N 39°12' W 076°31'4 4.5
2014-Sep-08 22:33N 39°15' W 076°35'7 7.0
2014-Sep-08 21:33N 39°11' W 076°28'9 0.4
2014-Sep-08 00:19N 39°05' W 076°21'7 8.0
2014-Sep-07 23:24N 38°58' W 076°24'1 0.0
2014-Sep-06 21:33N 38°58' W 076°23'8 6.2
2014-Sep-06 20:20N 39°06' W 076°21'7 0.3
2014-Sep-05 21:29N 39°11' W 076°26'7 7.4
2014-Sep-05 20:34N 39°15' W 076°33'2 2.2
2014-Sep-05 19:33N 39°15' W 076°36'4 4.3
2014-Sep-05 18:33N 39°13' W 076°31'6 5.6
2014-Sep-05 17:33N 39°12' W 076°24'17 2.3
2014-Sep-05 10:11N 39°23' W 076°07'5 8.0
2014-Sep-05 09:33N 39°20' W 076°12'  

Dump ship's entire track history